createdAt,value
2019-01-10T00:01:06.789Z,4.23
2019-01-10T00:03:35.735Z,1.77
2019-01-10T00:06:04.855Z,2.90
2019-01-10T00:08:33.808Z,4.57
2019-01-10T00:11:02.795Z,4.70
2019-01-10T00:13:31.654Z,1.17
2019-01-10T00:16:00.633Z,2.30
2019-01-10T00:18:31.624Z,3.13
2019-01-10T00:21:00.736Z,6.17
2019-01-10T00:23:30.190Z,2.77
2019-01-10T00:25:59.120Z,3.13
2019-01-10T00:28:27.909Z,3.73
2019-01-10T00:30:57.340Z,3.43
2019-01-10T00:33:26.302Z,1.80
2019-01-10T00:35:55.492Z,2.60
2019-01-10T00:38:24.358Z,6.70
2019-01-10T00:40:53.328Z,6.43
2019-01-10T00:43:22.175Z,2.90
2019-01-10T00:45:51.067Z,7.43
2019-01-10T00:48:20.012Z,3.37
2019-01-10T00:50:48.957Z,2.63
2019-01-10T00:53:17.893Z,2.23
2019-01-10T00:55:46.838Z,2.67
2019-01-10T00:58:15.931Z,2.40
2019-01-10T01:00:44.816Z,2.07
2019-01-10T01:03:13.716Z,2.63
2019-01-10T01:05:42.864Z,3.03
2019-01-10T01:08:11.783Z,3.30
2019-01-10T01:10:43.373Z,5.13
2019-01-10T01:13:12.314Z,3.40
2019-01-10T01:15:41.307Z,4.33
2019-01-10T01:18:10.154Z,2.13
2019-01-10T01:20:39.004Z,2.57
2019-01-10T01:23:07.900Z,2.43
2019-01-10T01:25:36.839Z,2.33
2019-01-10T01:28:05.723Z,2.73
2019-01-10T01:30:34.648Z,3.10
2019-01-10T01:33:05.709Z,2.73
2019-01-10T01:35:34.615Z,2.13
2019-01-10T01:38:04.070Z,3.60
2019-01-10T01:40:33.011Z,3.97
2019-01-10T01:43:07.568Z,5.10
2019-01-10T01:45:34.940Z,2.13
2019-01-10T01:48:04.139Z,2.40
2019-01-10T01:50:33.011Z,1.27
2019-01-10T01:53:01.928Z,2.97
2019-01-10T01:55:31.053Z,3.87
2019-01-10T01:58:01.963Z,8.70
2019-01-10T02:00:30.985Z,2.63
2019-01-10T02:03:06.422Z,2.40
2019-01-10T02:05:35.718Z,3.57
2019-01-10T02:08:04.875Z,4.73
2019-01-10T02:10:34.300Z,3.27
2019-01-10T02:13:04.324Z,5.10
2019-01-10T02:15:41.302Z,4.43
2019-01-10T02:18:10.198Z,4.03
2019-01-10T02:20:54.828Z,2.27
2019-01-10T02:23:24.912Z,5.60
2019-01-10T02:25:53.771Z,2.00
2019-01-10T02:28:22.919Z,5.00
2019-01-10T02:30:53.854Z,2.10
2019-01-10T02:33:22.716Z,2.67
2019-01-10T02:35:51.695Z,2.03
2019-01-10T02:38:20.811Z,3.77
2019-01-10T02:40:51.360Z,2.10
2019-01-10T02:43:26.286Z,4.33
2019-01-10T02:45:51.680Z,4.23
2019-01-10T02:48:26.328Z,4.07
2019-01-10T02:50:55.129Z,2.10
2019-01-10T02:53:24.010Z,2.77
2019-01-10T02:55:52.874Z,3.10
2019-01-10T02:58:21.740Z,2.30
2019-01-10T03:00:50.613Z,3.93
2019-01-10T03:03:19.570Z,4.67
2019-01-10T03:05:48.539Z,4.67
2019-01-10T03:08:17.425Z,2.07
2019-01-10T03:10:46.283Z,3.20
2019-01-10T03:13:15.203Z,4.83
2019-01-10T03:15:46.748Z,4.27
2019-01-10T03:18:17.516Z,4.23
2019-01-10T03:20:46.894Z,5.97
2019-01-10T03:23:16.071Z,4.20
2019-01-10T03:25:44.989Z,2.97
2019-01-10T03:28:13.872Z,2.23
2019-01-10T03:30:45.118Z,2.10
2019-01-10T03:33:16.862Z,2.87
2019-01-10T03:35:45.694Z,2.87
2019-01-10T03:38:16.121Z,6.33
2019-01-10T03:40:47.435Z,4.67
2019-01-10T03:43:16.643Z,3.60
2019-01-10T03:45:46.675Z,3.17
2019-01-10T03:48:15.877Z,4.63
2019-01-10T03:50:44.719Z,3.10
2019-01-10T03:53:15.351Z,3.30
2019-01-10T03:55:44.575Z,2.00
2019-01-10T03:58:13.512Z,2.43
2019-01-10T04:00:42.449Z,3.60
2019-01-10T04:03:11.562Z,5.83
2019-01-10T04:05:40.703Z,2.87
2019-01-10T04:08:09.454Z,2.50
2019-01-10T04:10:38.331Z,4.50
2019-01-10T04:13:07.172Z,4.33
2019-01-10T04:15:36.141Z,2.37
2019-01-10T04:18:05.067Z,2.73
2019-01-10T04:20:33.962Z,4.17
2019-01-10T04:23:02.816Z,3.00
2019-01-10T04:25:31.581Z,3.53
2019-01-10T04:28:03.024Z,3.40
2019-01-10T04:30:31.996Z,1.47
2019-01-10T04:33:00.875Z,4.03
2019-01-10T04:35:29.808Z,3.73
2019-01-10T04:37:58.757Z,2.70
2019-01-10T04:40:27.637Z,4.67
2019-01-10T04:42:58.589Z,1.97
2019-01-10T04:45:29.311Z,1.30
2019-01-10T04:47:58.444Z,5.40
2019-01-10T04:50:28.039Z,2.93
2019-01-10T04:52:57.424Z,2.90
2019-01-10T04:55:26.317Z,4.30
2019-01-10T04:57:55.215Z,4.37
2019-01-10T05:00:27.189Z,1.80
2019-01-10T05:02:59.371Z,2.50
2019-01-10T05:05:28.319Z,4.30
2019-01-10T05:07:57.542Z,4.70
2019-01-10T05:10:26.705Z,1.63
2019-01-10T05:12:55.589Z,2.23
2019-01-10T05:15:24.521Z,3.53
2019-01-10T05:17:53.643Z,1.70
2019-01-10T05:20:22.506Z,4.93
2019-01-10T05:22:52.351Z,3.27
2019-01-10T05:25:22.904Z,3.10
2019-01-10T05:27:51.719Z,4.73
2019-01-10T05:30:25.137Z,1.90
2019-01-10T05:32:54.975Z,3.63
2019-01-10T05:35:24.175Z,1.80
2019-01-10T05:37:53.405Z,3.90
2019-01-10T05:40:26.383Z,6.63
2019-01-10T05:42:55.300Z,5.17
2019-01-10T05:45:24.531Z,5.00
2019-01-10T05:47:53.514Z,3.80
2019-01-10T05:50:22.495Z,4.10
2019-01-10T05:52:51.453Z,3.97
2019-01-10T05:55:22.045Z,5.03
2019-01-10T05:57:51.159Z,5.60
2019-01-10T06:00:25.162Z,7.97
2019-01-10T06:02:58.145Z,2.40
2019-01-10T06:05:27.162Z,5.07
2019-01-10T06:07:56.411Z,4.77
2019-01-10T06:10:31.508Z,4.47
2019-01-10T06:13:01.620Z,4.83
2019-01-10T06:15:30.480Z,5.43
2019-01-10T06:18:00.612Z,3.87
2019-01-10T06:20:31.519Z,8.00
2019-01-10T06:23:21.035Z,3.60
2019-01-10T06:25:50.322Z,4.33
2019-01-10T06:28:19.135Z,9.33
2019-01-10T06:30:47.934Z,5.10
2019-01-10T06:33:16.815Z,2.57
2019-01-10T06:35:45.759Z,5.53
2019-01-10T06:38:14.549Z,5.53
2019-01-10T06:40:43.423Z,5.03
2019-01-10T06:43:12.342Z,3.27
2019-01-10T06:45:41.211Z,1.80
2019-01-10T06:48:10.124Z,10.53
2019-01-10T06:50:39.191Z,2.87
2019-01-10T06:53:08.126Z,2.23
2019-01-10T06:55:37.012Z,4.90
2019-01-10T06:58:05.974Z,3.60
2019-01-10T07:00:34.843Z,4.90
2019-01-10T07:03:03.731Z,6.50
2019-01-10T07:05:32.952Z,4.57
2019-01-10T07:08:01.681Z,6.43
2019-01-10T07:10:31.155Z,8.23
2019-01-10T07:13:00.106Z,5.67
2019-01-10T07:15:28.998Z,4.60
2019-01-10T07:17:59.591Z,7.23
2019-01-10T07:20:28.500Z,6.53
2019-01-10T07:23:00.467Z,4.33
2019-01-10T07:25:29.456Z,8.57
2019-01-10T07:28:01.815Z,6.73
2019-01-10T07:30:35.777Z,4.73
2019-01-10T07:33:01.352Z,6.10
2019-01-10T07:35:30.376Z,11.20
2019-01-10T07:37:59.342Z,6.97
2019-01-10T07:40:28.531Z,10.87
2019-01-10T07:42:57.657Z,6.77
2019-01-10T07:45:27.598Z,8.13
2019-01-10T07:47:56.572Z,5.10
2019-01-10T07:50:35.995Z,6.53
2019-01-10T07:53:09.408Z,5.07
2019-01-10T07:55:39.040Z,5.33
2019-01-10T07:58:08.130Z,11.47
2019-01-10T08:00:37.065Z,8.97
2019-01-10T08:03:08.569Z,5.33
2019-01-10T08:05:37.218Z,9.33
2019-01-10T08:08:07.251Z,11.30
2019-01-10T08:10:37.546Z,10.00
2019-01-10T08:13:06.920Z,8.40
2019-01-10T08:15:35.888Z,6.93
2019-01-10T08:18:04.988Z,8.67
2019-01-10T08:20:33.983Z,7.83
2019-01-10T08:23:02.863Z,9.00
2019-01-10T08:25:33.416Z,7.73
2019-01-10T08:28:02.348Z,9.10
2019-01-10T08:30:31.246Z,7.40
2019-01-10T08:33:00.281Z,7.20
2019-01-10T08:35:29.711Z,7.50
2019-01-10T08:37:58.681Z,8.57
2019-01-10T08:40:27.630Z,8.33
2019-01-10T08:42:56.546Z,9.77
2019-01-10T08:45:25.574Z,15.30
2019-01-10T08:47:54.549Z,10.07
2019-01-10T08:50:29.656Z,6.07
2019-01-10T08:52:58.577Z,12.13
2019-01-10T08:55:27.587Z,7.47
2019-01-10T08:57:56.411Z,11.13
2019-01-10T09:00:26.122Z,9.50
2019-01-10T09:02:55.792Z,6.13
2019-01-10T09:05:24.978Z,6.67
2019-01-10T09:07:54.461Z,10.80
2019-01-10T09:10:34.278Z,8.17
2019-01-10T09:13:04.068Z,11.03
2019-01-10T09:15:34.769Z,9.10
2019-01-10T09:18:06.215Z,6.27
2019-01-10T09:20:35.384Z,12.97
2019-01-10T09:23:04.440Z,7.50
2019-01-10T09:25:33.318Z,10.47
2019-01-10T09:28:02.331Z,8.73
2019-01-10T09:30:31.321Z,7.83
2019-01-10T09:33:00.210Z,9.43
2019-01-10T09:35:29.188Z,8.77
2019-01-10T09:37:58.187Z,13.07
2019-01-10T09:40:27.096Z,9.57
2019-01-10T09:42:56.073Z,6.67
2019-01-10T09:45:25.838Z,10.57
2019-01-10T09:47:54.828Z,8.60
2019-01-10T09:50:24.069Z,9.90
2019-01-10T09:52:53.970Z,9.13
2019-01-10T09:55:22.982Z,10.13
2019-01-10T09:57:53.560Z,6.67
2019-01-10T10:00:26.826Z,8.10
2019-01-10T10:02:55.739Z,7.67
2019-01-10T10:05:24.718Z,8.60
2019-01-10T10:07:57.990Z,7.60
2019-01-10T10:10:27.128Z,9.20
2019-01-10T10:12:56.098Z,9.03
2019-01-10T10:15:25.032Z,8.90
2019-01-10T10:17:54.026Z,9.03
2019-01-10T10:20:24.505Z,7.83
2019-01-10T10:22:53.454Z,9.10
2019-01-10T10:25:22.419Z,8.27
2019-01-10T10:27:51.348Z,7.90
2019-01-10T10:30:21.356Z,7.27
2019-01-10T10:32:50.344Z,6.80
2019-01-10T10:35:24.103Z,9.20
2019-01-10T10:37:53.070Z,11.17
2019-01-10T10:40:22.579Z,7.17
2019-01-10T10:42:52.350Z,6.73
2019-01-10T10:45:21.650Z,7.23
2019-01-10T10:47:50.696Z,6.17
2019-01-10T10:50:22.219Z,7.17
2019-01-10T10:52:52.575Z,7.87
2019-01-10T10:55:21.540Z,5.37
2019-01-10T10:57:50.572Z,5.43
2019-01-10T11:00:22.234Z,6.77
2019-01-10T11:02:51.191Z,5.43
2019-01-10T11:05:21.422Z,5.50
2019-01-10T11:07:50.329Z,7.87
2019-01-10T11:10:19.670Z,8.63
2019-01-10T11:12:49.243Z,9.17
2019-01-10T11:15:18.459Z,9.87
2019-01-10T11:17:48.606Z,7.10
2019-01-10T11:20:24.428Z,8.23
2019-01-10T11:22:54.651Z,7.80
2019-01-10T11:25:28.592Z,6.73
2019-01-10T11:31:25.432Z,8.27
2019-01-10T11:33:57.586Z,7.97
2019-01-10T11:36:26.740Z,8.20
2019-01-10T11:38:56.199Z,7.27
2019-01-10T11:41:25.427Z,9.67
2019-01-10T11:43:57.259Z,7.00
2019-01-10T11:46:27.632Z,5.87
2019-01-10T11:52:36.595Z,6.50
2019-01-10T11:55:06.101Z,12.80
2019-01-10T11:57:35.161Z,7.13
2019-01-10T12:00:05.619Z,11.20
2019-01-10T12:02:36.464Z,8.20
2019-01-10T12:05:56.098Z,9.00
2019-01-10T12:08:25.064Z,8.60
2019-01-10T12:10:53.950Z,10.87
2019-01-10T12:13:23.702Z,11.87
2019-01-10T12:15:53.079Z,8.30
2019-01-10T12:18:29.733Z,10.60
2019-01-10T12:20:59.810Z,13.70
2019-01-10T12:23:28.586Z,10.23
2019-01-10T12:25:57.546Z,12.77
2019-01-10T12:28:26.707Z,12.27
2019-01-10T12:30:55.626Z,8.33
2019-01-10T12:33:25.097Z,8.27
2019-01-10T12:35:54.102Z,8.37
2019-01-10T12:38:23.283Z,6.87
2019-01-10T12:40:52.211Z,9.17
2019-01-10T12:43:21.356Z,10.63
2019-01-10T12:45:50.353Z,7.57
2019-01-10T12:48:19.258Z,8.27
2019-01-10T12:50:48.158Z,8.97
2019-01-10T12:53:17.187Z,8.53
2019-01-10T12:55:46.175Z,9.87
2019-01-10T12:58:18.497Z,9.93
2019-01-10T13:00:47.395Z,7.87
2019-01-10T13:03:17.398Z,8.13
2019-01-10T13:05:46.301Z,8.73
2019-01-10T13:08:15.304Z,7.97
2019-01-10T13:10:44.303Z,8.10
2019-01-10T13:13:15.583Z,9.27
2019-01-10T13:15:44.518Z,11.90
2019-01-10T13:18:13.470Z,11.73
2019-01-10T13:20:42.486Z,6.40
2019-01-10T13:23:11.462Z,5.23
2019-01-10T13:25:40.332Z,7.70
2019-01-10T13:28:09.312Z,12.63
2019-01-10T13:30:38.283Z,7.27
2019-01-10T13:33:07.163Z,10.30
2019-01-10T13:35:36.134Z,9.17
2019-01-10T13:38:05.185Z,9.70
2019-01-10T13:40:34.229Z,10.53
2019-01-10T13:43:05.091Z,8.43
2019-01-10T13:45:36.342Z,8.03
2019-01-10T13:48:05.873Z,5.27
2019-01-10T13:50:35.057Z,8.23
2019-01-10T13:53:04.303Z,7.40
2019-01-10T13:55:33.513Z,9.10
2019-01-10T13:58:02.480Z,10.27
2019-01-10T14:00:35.594Z,6.73
2019-01-10T14:03:02.876Z,9.13
2019-01-10T14:05:31.891Z,6.50
2019-01-10T14:08:00.871Z,10.03
2019-01-10T14:10:29.836Z,11.83
2019-01-10T14:12:58.738Z,10.57
2019-01-10T14:15:30.428Z,6.60
2019-01-10T14:20:41.665Z,9.13
2019-01-10T14:23:22.919Z,9.03
2019-01-10T14:25:51.791Z,9.90
2019-01-10T14:28:20.767Z,10.50
2019-01-10T14:30:49.756Z,5.23
2019-01-10T14:33:18.691Z,11.63
2019-01-10T14:35:47.587Z,6.03
2019-01-10T14:38:16.540Z,6.47
2019-01-10T14:40:45.509Z,6.03
2019-01-10T14:43:14.424Z,7.23
2019-01-10T14:45:43.900Z,7.87
2019-01-10T14:48:12.776Z,8.87
2019-01-10T14:50:41.802Z,10.03
2019-01-10T14:53:10.736Z,8.27
2019-01-10T14:55:39.695Z,10.93
2019-01-10T14:58:08.733Z,7.97
2019-01-10T15:00:37.762Z,8.23
2019-01-10T15:03:06.689Z,11.47
2019-01-10T15:05:35.571Z,15.27
2019-01-10T15:08:04.868Z,8.13
2019-01-10T15:10:33.929Z,10.80
2019-01-10T15:13:02.869Z,10.17
2019-01-10T15:15:31.672Z,19.93
2019-01-10T15:18:00.633Z,12.07
2019-01-10T15:20:31.082Z,10.57
2019-01-10T15:23:00.013Z,11.13
2019-01-10T15:25:28.976Z,10.20
2019-01-10T15:27:57.927Z,12.73
2019-01-10T15:30:28.105Z,11.63
2019-01-10T15:32:57.386Z,12.00
2019-01-10T15:35:26.408Z,9.47
2019-01-10T15:37:55.304Z,12.23
2019-01-10T15:40:31.995Z,12.53
2019-01-10T15:43:01.058Z,8.63
2019-01-10T15:45:30.041Z,16.77
2019-01-10T15:47:59.017Z,10.87
2019-01-10T15:50:28.015Z,13.13
2019-01-10T15:52:56.976Z,12.70
2019-01-10T15:55:25.879Z,15.50
2019-01-10T15:57:54.819Z,16.53
2019-01-10T16:00:24.437Z,14.00
2019-01-10T16:02:53.457Z,11.37
2019-01-10T16:05:22.382Z,11.10
2019-01-10T16:07:51.328Z,11.03
2019-01-10T16:10:20.673Z,14.60
2019-01-10T16:12:49.974Z,11.37
2019-01-10T16:15:20.602Z,12.13
2019-01-10T16:17:49.610Z,10.40
2019-01-10T16:20:21.734Z,10.23
2019-01-10T16:22:50.757Z,11.77
2019-01-10T16:25:19.928Z,10.43
2019-01-10T16:27:48.930Z,10.97
2019-01-10T16:30:28.307Z,14.20
2019-01-10T16:32:57.269Z,10.03
2019-01-10T16:35:26.158Z,10.13
2019-01-10T16:37:55.121Z,13.03
2019-01-10T16:40:24.034Z,9.53
2019-01-10T16:42:52.977Z,9.90
2019-01-10T16:45:29.853Z,14.13
2019-01-10T16:47:58.747Z,14.03
2019-01-10T16:50:27.653Z,12.83
2019-01-10T16:52:56.553Z,11.70
2019-01-10T16:55:25.543Z,8.10
2019-01-10T16:57:54.998Z,11.80
2019-01-10T17:00:32.443Z,7.97
2019-01-10T17:03:01.917Z,11.10
2019-01-10T17:05:57.713Z,13.23
2019-01-10T17:08:26.594Z,10.23
2019-01-10T17:10:56.169Z,13.93
2019-01-10T17:13:25.197Z,11.90
2019-01-10T17:15:54.155Z,8.73
2019-01-10T17:18:23.152Z,10.43
2019-01-10T17:20:52.199Z,13.10
2019-01-10T17:23:21.227Z,13.07
2019-01-10T17:25:50.267Z,10.90
2019-01-10T17:28:19.253Z,14.00
2019-01-10T17:30:48.249Z,10.93
2019-01-10T17:33:20.736Z,10.27
2019-01-10T17:35:51.358Z,13.97
2019-01-10T17:38:21.415Z,13.63
2019-01-10T17:40:53.119Z,11.60
2019-01-10T17:43:22.268Z,9.90
2019-01-10T17:45:53.534Z,10.37
2019-01-10T17:48:24.974Z,10.23
2019-01-10T17:50:54.006Z,12.97
2019-01-10T17:53:22.883Z,12.87
2019-01-10T17:55:51.824Z,11.63
2019-01-10T17:58:38.938Z,14.67
2019-01-10T18:01:07.902Z,12.10
2019-01-10T18:03:40.171Z,12.13
2019-01-10T18:06:07.545Z,10.07
2019-01-10T18:08:36.435Z,10.20
2019-01-10T18:11:05.413Z,14.83
2019-01-10T18:13:34.356Z,15.53
2019-01-10T18:16:03.322Z,12.77
2019-01-10T18:18:32.194Z,10.53
2019-01-10T18:21:01.195Z,14.10
2019-01-10T18:23:30.244Z,16.20
2019-01-10T18:26:01.219Z,9.63
2019-01-10T18:28:32.519Z,14.30
2019-01-10T18:31:01.297Z,9.97
2019-01-10T18:33:31.593Z,8.10
2019-01-10T18:39:28.749Z,11.53
2019-01-10T18:41:57.753Z,13.60
2019-01-10T18:44:26.672Z,10.00
2019-01-10T18:46:55.619Z,12.00
2019-01-10T18:49:30.450Z,11.33
2019-01-10T18:51:55.765Z,11.07
2019-01-10T18:54:24.754Z,9.00
2019-01-10T18:56:56.859Z,14.50
2019-01-10T18:59:25.746Z,11.87
2019-01-10T19:02:01.990Z,9.13
2019-01-10T19:04:30.902Z,11.93
2019-01-10T19:07:02.159Z,9.43
2019-01-10T19:09:31.097Z,10.47
2019-01-10T19:12:00.079Z,6.23
2019-01-10T19:14:28.991Z,27.13
2019-01-10T19:16:57.801Z,8.90
2019-01-10T19:19:26.869Z,9.87
2019-01-10T19:21:55.821Z,10.33
2019-01-10T19:24:24.755Z,8.27
2019-01-10T19:26:53.723Z,10.73
2019-01-10T19:29:23.793Z,7.93
2019-01-10T19:31:53.367Z,10.13
2019-01-10T19:34:25.477Z,9.03
2019-01-10T19:36:54.409Z,10.07
2019-01-10T19:39:23.318Z,10.33
2019-01-10T19:41:52.353Z,8.77
2019-01-10T19:44:21.367Z,10.20
2019-01-10T19:46:50.287Z,9.53
2019-01-10T19:49:19.328Z,9.43
2019-01-10T19:51:48.205Z,7.10
2019-01-10T19:54:18.036Z,7.77
2019-01-10T19:56:48.137Z,5.90
2019-01-10T19:59:17.168Z,7.67
2019-01-10T20:01:46.039Z,8.10
2019-01-10T20:04:15.158Z,9.13
2019-01-10T20:06:44.186Z,10.80
2019-01-10T20:09:13.251Z,8.57
2019-01-10T20:11:42.974Z,5.43
2019-01-10T20:14:11.979Z,6.87
2019-01-10T20:16:40.956Z,5.77
2019-01-10T20:19:11.504Z,10.50
2019-01-10T20:21:40.507Z,6.73
2019-01-10T20:24:09.540Z,9.00
2019-01-10T20:26:42.877Z,9.57
2019-01-10T20:29:13.233Z,8.50
2019-01-10T20:31:43.893Z,7.60
2019-01-10T20:34:13.196Z,7.10
2019-01-10T20:36:42.396Z,6.10
2019-01-10T20:39:11.873Z,7.43
2019-01-10T20:41:43.484Z,8.73
2019-01-10T20:44:15.010Z,7.07
2019-01-10T20:46:47.546Z,7.97
2019-01-10T20:49:17.128Z,8.73
2019-01-10T20:51:46.149Z,7.93
2019-01-10T20:54:15.177Z,9.40
2019-01-10T20:56:44.220Z,7.50
2019-01-10T20:59:13.620Z,9.07
2019-01-10T21:01:42.551Z,11.30
2019-01-10T21:04:11.541Z,6.87
2019-01-10T21:06:40.612Z,8.27
2019-01-10T21:09:13.086Z,9.20
2019-01-10T21:11:40.545Z,6.43
2019-01-10T21:14:09.550Z,7.10
2019-01-10T21:16:38.589Z,6.30
2019-01-10T21:19:07.781Z,8.83
2019-01-10T21:21:37.229Z,8.47
2019-01-10T21:24:06.517Z,6.53
2019-01-10T21:26:35.595Z,6.67
2019-01-10T21:29:04.600Z,8.03
2019-01-10T21:31:34.060Z,7.73
2019-01-10T21:34:03.057Z,9.97
2019-01-10T21:36:32.010Z,8.73
2019-01-10T21:39:00.953Z,9.37
2019-01-10T21:41:29.855Z,7.07
2019-01-10T21:43:58.789Z,7.73
2019-01-10T21:46:27.816Z,7.90
2019-01-10T21:48:56.835Z,7.97
2019-01-10T21:51:25.742Z,10.27
2019-01-10T21:53:54.642Z,7.90
2019-01-10T21:56:23.765Z,8.53
2019-01-10T21:58:52.790Z,9.17
2019-01-10T22:01:21.818Z,8.33
2019-01-10T22:03:50.759Z,9.77
2019-01-10T22:06:19.716Z,10.40
2019-01-10T22:08:48.728Z,9.77
2019-01-10T22:11:20.829Z,10.17
2019-01-10T22:13:49.744Z,10.37
2019-01-10T22:16:18.646Z,10.73
2019-01-10T22:18:47.523Z,11.20
2019-01-10T22:21:16.571Z,11.23
2019-01-10T22:23:45.848Z,13.20
2019-01-10T22:26:14.883Z,11.73
2019-01-10T22:28:43.961Z,12.30
2019-01-10T22:31:13.018Z,12.97
2019-01-10T22:33:42.098Z,13.93
2019-01-10T22:36:11.272Z,14.30
2019-01-10T22:38:40.384Z,16.20
2019-01-10T22:41:09.432Z,14.60
2019-01-10T22:43:38.373Z,14.93
2019-01-10T22:46:07.933Z,16.57
2019-01-10T22:48:36.919Z,16.03
2019-01-10T22:51:08.183Z,16.33
2019-01-10T22:53:38.433Z,18.50
2019-01-10T22:56:08.679Z,17.70
2019-01-10T22:58:39.939Z,18.33
2019-01-10T23:01:39.684Z,19.07
2019-01-10T23:04:10.033Z,19.67
2019-01-10T23:06:39.025Z,20.30
2019-01-10T23:09:09.802Z,18.80
2019-01-10T23:11:38.954Z,21.83
2019-01-10T23:14:08.131Z,20.73
2019-01-10T23:16:37.395Z,22.00
2019-01-10T23:19:07.076Z,22.93
2019-01-10T23:21:40.606Z,20.30
2019-01-10T23:24:19.793Z,20.20
2019-01-10T23:26:55.736Z,22.07
2019-01-10T23:29:31.639Z,21.03
2019-01-10T23:32:02.915Z,20.90
2019-01-10T23:34:31.882Z,22.17
2019-01-10T23:37:00.846Z,24.03
2019-01-10T23:39:29.827Z,23.33
2019-01-10T23:41:58.959Z,23.00
2019-01-10T23:44:28.043Z,26.17
2019-01-10T23:46:56.976Z,24.20
2019-01-10T23:49:25.928Z,24.20
2019-01-10T23:51:54.983Z,25.73
2019-01-10T23:54:23.898Z,23.67
2019-01-10T23:56:52.794Z,22.87
2019-01-10T23:59:22.811Z,24.27
